sensor_id;sensor_type;location;lat;lon;timestamp;temperature;humidity
21121;DHT22;12519;43.318;21.898;2023-03-01T00:03:12;6.7;100.0
21121;DHT22;12519;43.318;21.898;2023-03-01T00:07:48;6.7;100.0
21121;DHT22;12519;43.318;21.898;2023-03-01T00:12:28;6.7;100.0
21121;DHT22;12519;43.318;21.898;2023-03-01T00:17:08;6.8;100.0
21121;DHT22;12519;43.318;21.898;2023-03-01T00:21:44;6.8;100.0
21121;DHT22;12519;43.318;21.898;2023-03-01T00:26:23;6.8;100.0
21121;DHT22;12519;43.318;21.898;2023-03-01T00:31:04;6.8;100.0
21121;DHT22;12519;43.318;21.898;2023-03-01T00:35:48;6.8;100.0
21121;DHT22;12519;43.318;21.898;2023-03-01T00:40:25;6.8;100.0
21121;DHT22;12519;43.318;21.898;2023-03-01T00:45:09;6.8;100.0
21121;DHT22;12519;43.318;21.898;2023-03-01T00:49:46;6.8;100.0
21121;DHT22;12519;43.318;21.898;2023-03-01T00:54:24;6.7;100.0
21121;DHT22;12519;43.318;21.898;2023-03-01T00:59:01;6.7;100.0
21121;DHT22;12519;43.318;21.898;2023-03-01T01:03:38;6.6;100.0
21121;DHT22;12519;43.318;21.898;2023-03-01T01:08:15;6.6;100.0
21121;DHT22;12519;43.318;21.898;2023-03-01T01:12:52;6.6;100.0
21121;DHT22;12519;43.318;21.898;2023-03-01T01:17:29;6.8;100.0
21121;DHT22;12519;43.318;21.898;2023-03-01T01:22:05;6.8;100.0
21121;DHT22;12519;43.318;21.898;2023-03-01T01:26:43;7.1;100.0
21121;DHT22;12519;43.318;21.898;2023-03-01T01:31:23;7.1;100.0
21121;DHT22;12519;43.318;21.898;2023-03-01T01:36:04;7.2;100.0
21121;DHT22;12519;43.318;21.898;2023-03-01T01:40:44;7.2;100.0
21121;DHT22;12519;43.318;21.898;2023-03-01T01:45:27;7.3;100.0
21121;DHT22;12519;43.318;21.898;2023-03-01T01:50:16;7.3;100.0
21121;DHT22;12519;43.318;21.898;2023-03-01T01:54:58;7.4;100.0
21121;DHT22;12519;43.318;21.898;2023-03-01T01:59:53;7.4;100.0
21121;DHT22;12519;43.318;21.898;2023-03-01T02:04:47;7.6;100.0
21121;DHT22;12519;43.318;21.898;2023-03-01T02:09:49;7.6;100.0
21121;DHT22;12519;43.318;21.898;2023-03-01T02:14:29;7.4;100.0
21121;DHT22;12519;43.318;21.898;2023-03-01T02:19:07;7.4;100.0
21121;DHT22;12519;43.318;21.898;2023-03-01T02:24:36;7.1;100.0
21121;DHT22;12519;43.318;21.898;2023-03-01T02:29:57;7.1;100.0
21121;DHT22;12519;43.318;21.898;2023-03-01T02:34:34;7.0;100.0
21121;DHT22;12519;43.318;21.898;2023-03-01T02:39:14;7.0;100.0
21121;DHT22;12519;43.318;21.898;2023-03-01T02:44:04;7.0;100.0
21121;DHT22;12519;43.318;21.898;2023-03-01T02:48:44;7.0;100.0
21121;DHT22;12519;43.318;21.898;2023-03-01T02:53:35;7.0;100.0
21121;DHT22;12519;43.318;21.898;2023-03-01T02:58:45;7.0;100.0
21121;DHT22;12519;43.318;21.898;2023-03-01T03:03:25;7.0;100.0
21121;DHT22;12519;43.318;21.898;2023-03-01T03:08:02;7.1;100.0
21121;DHT22;12519;43.318;21.898;2023-03-01T03:12:40;7.1;100.0
21121;DHT22;12519;43.318;21.898;2023-03-01T03:17:18;7.0;100.0
21121;DHT22;12519;43.318;21.898;2023-03-01T03:21:55;7.0;100.0
21121;DHT22;12519;43.318;21.898;2023-03-01T03:26:32;6.9;100.0
21121;DHT22;12519;43.318;21.898;2023-03-01T03:31:10;6.9;100.0
21121;DHT22;12519;43.318;21.898;2023-03-01T03:35:48;7.1;100.0
21121;DHT22;12519;43.318;21.898;2023-03-01T03:40:28;7.1;100.0
21121;DHT22;12519;43.318;21.898;2023-03-01T03:45:17;7.3;100.0
21121;DHT22;12519;43.318;21.898;2023-03-01T03:49:55;7.3;100.0
21121;DHT22;12519;43.318;21.898;2023-03-01T03:54:31;7.6;100.0
21121;DHT22;12519;43.318;21.898;2023-03-01T03:59:08;7.6;100.0
21121;DHT22;12519;43.318;21.898;2023-03-01T04:03:45;8.0;100.0
21121;DHT22;12519;43.318;21.898;2023-03-01T04:08:22;8.0;100.0
21121;DHT22;12519;43.318;21.898;2023-03-01T04:13:00;8.0;100.0
21121;DHT22;12519;43.318;21.898;2023-03-01T04:17:38;8.1;100.0
21121;DHT22;12519;43.318;21.898;2023-03-01T04:22:15;8.1;100.0
21121;DHT22;12519;43.318;21.898;2023-03-01T04:26:52;8.2;100.0
21121;DHT22;12519;43.318;21.898;2023-03-01T04:31:28;8.2;100.0
21121;DHT22;12519;43.318;21.898;2023-03-01T04:36:05;9.4;99.0
21121;DHT22;12519;43.318;21.898;2023-03-01T04:40:47;9.4;99.0
21121;DHT22;12519;43.318;21.898;2023-03-01T04:45:24;10.5;98.0
21121;DHT22;12519;43.318;21.898;2023-03-01T04:50:01;10.5;98.0
21121;DHT22;12519;43.318;21.898;2023-03-01T04:54:37;10.2;96.0
21121;DHT22;12519;43.318;21.898;2023-03-01T04:59:14;10.2;96.0
21121;DHT22;12519;43.318;21.898;2023-03-01T05:03:51;10.2;96.0
21121;DHT22;12519;43.318;21.898;2023-03-01T05:08:28;9.9;95.0
21121;DHT22;12519;43.318;21.898;2023-03-01T05:13:04;9.9;95.0
21121;DHT22;12519;43.318;21.898;2023-03-01T05:17:41;9.1;97.0
21121;DHT22;12519;43.318;21.898;2023-03-01T05:22:17;9.1;97.0
21121;DHT22;12519;43.318;21.898;2023-03-01T05:26:54;8.3;100.0
21121;DHT22;12519;43.318;21.898;2023-03-01T05:31:30;8.3;100.0
21121;DHT22;12519;43.318;21.898;2023-03-01T05:36:09;8.1;100.0
21121;DHT22;12519;43.318;21.898;2023-03-01T05:40:47;8.1;100.0
21121;DHT22;12519;43.318;21.898;2023-03-01T05:45:26;7.9;100.0
21121;DHT22;12519;43.318;21.898;2023-03-01T05:50:04;7.9;100.0
21121;DHT22;12519;43.318;21.898;2023-03-01T05:54:41;7.9;100.0
21121;DHT22;12519;43.318;21.898;2023-03-01T05:59:18;7.9;100.0
21121;DHT22;12519;43.318;21.898;2023-03-01T06:03:55;7.9;100.0
21121;DHT22;12519;43.318;21.898;2023-03-01T06:08:32;7.9;100.0
21121;DHT22;12519;43.318;21.898;2023-03-01T06:13:09;7.9;100.0
21121;DHT22;12519;43.318;21.898;2023-03-01T06:17:46;7.8;100.0
21121;DHT22;12519;43.318;21.898;2023-03-01T06:22:24;7.8;100.0
21121;DHT22;12519;43.318;21.898;2023-03-01T06:27:02;7.8;100.0
21121;DHT22;12519;43.318;21.898;2023-03-01T06:31:39;7.8;100.0
21121;DHT22;12519;43.318;21.898;2023-03-01T06:36:16;8.8;99.0
21121;DHT22;12519;43.318;21.898;2023-03-01T06:40:54;8.8;99.0
21121;DHT22;12519;43.318;21.898;2023-03-01T06:45:31;9.7;99.0
21121;DHT22;12519;43.318;21.898;2023-03-01T06:50:10;9.7;99.0
21121;DHT22;12519;43.318;21.898;2023-03-01T06:54:49;12.5;92.0
21121;DHT22;12519;43.318;21.898;2023-03-01T06:59:25;12.5;92.0
21121;DHT22;12519;43.318;21.898;2023-03-01T07:04:02;12.5;92.0
21121;DHT22;12519;43.318;21.898;2023-03-01T07:08:39;15.3;84.0
21121;DHT22;12519;43.318;21.898;2023-03-01T07:13:15;15.3;84.0
21121;DHT22;12519;43.318;21.898;2023-03-01T07:17:51;13.9;84.0
21121;DHT22;12519;43.318;21.898;2023-03-01T07:22:28;13.9;84.0
21121;DHT22;12519;43.318;21.898;2023-03-01T07:27:04;12.5;84.0
21121;DHT22;12519;43.318;21.898;2023-03-01T07:31:41;12.5;84.0
21121;DHT22;12519;43.318;21.898;2023-03-01T07:36:17;13.8;82.0
21121;DHT22;12519;43.318;21.898;2023-03-01T07:40:57;13.8;82.0
21121;DHT22;12519;43.318;21.898;2023-03-01T07:45:38;15.1;80.0
21121;DHT22;12519;43.318;21.898;2023-03-01T07:50:15;15.1;80.0
21121;DHT22;12519;43.318;21.898;2023-03-01T07:54:52;14.0;81.0
21121;DHT22;12519;43.318;21.898;2023-03-01T07:59:29;14.0;81.0
21121;DHT22;12519;43.318;21.898;2023-03-01T08:04:05;14.0;81.0
21121;DHT22;12519;43.318;21.898;2023-03-01T08:08:44;12.8;81.0
21121;DHT22;12519;43.318;21.898;2023-03-01T08:13:22;12.8;81.0
21121;DHT22;12519;43.318;21.898;2023-03-01T08:17:59;11.9;83.0
21121;DHT22;12519;43.318;21.898;2023-03-01T08:22:36;11.9;83.0
21121;DHT22;12519;43.318;21.898;2023-03-01T08:27:12;10.9;86.0
21121;DHT22;12519;43.318;21.898;2023-03-01T08:31:52;10.9;86.0
21121;DHT22;12519;43.318;21.898;2023-03-01T08:36:31;10.8;87.0
21121;DHT22;12519;43.318;21.898;2023-03-01T08:41:17;10.8;87.0
21121;DHT22;12519;43.318;21.898;2023-03-01T08:45:55;10.7;88.0
21121;DHT22;12519;43.318;21.898;2023-03-01T08:50:32;10.7;88.0
21121;DHT22;12519;43.318;21.898;2023-03-01T08:55:09;10.7;88.0
21121;DHT22;12519;43.318;21.898;2023-03-01T08:59:46;10.7;88.0
21121;DHT22;12519;43.318;21.898;2023-03-01T09:04:23;10.7;88.0
21121;DHT22;12519;43.318;21.898;2023-03-01T09:09:00;10.7;88.0
21121;DHT22;12519;43.318;21.898;2023-03-01T09:13:51;10.7;88.0
21121;DHT22;12519;43.318;21.898;2023-03-01T09:18:28;10.9;88.0
21121;DHT22;12519;43.318;21.898;2023-03-01T09:23:07;10.9;88.0
21121;DHT22;12519;43.318;21.898;2023-03-01T09:27:43;11.1;88.0
21121;DHT22;12519;43.318;21.898;2023-03-01T09:32:20;11.1;88.0
21121;DHT22;12519;43.318;21.898;2023-03-01T09:36:57;11.0;89.0
21121;DHT22;12519;43.318;21.898;2023-03-01T09:41:42;11.0;89.0
21121;DHT22;12519;43.318;21.898;2023-03-01T09:46:40;11.0;89.0
21121;DHT22;12519;43.318;21.898;2023-03-01T09:51:26;11.0;89.0
21121;DHT22;12519;43.318;21.898;2023-03-01T09:56:17;11.6;88.0
21121;DHT22;12519;43.318;21.898;2023-03-01T10:01:26;11.6;88.0
21121;DHT22;12519;43.318;21.898;2023-03-01T10:06:20;12.3;88.0
21121;DHT22;12519;43.318;21.898;2023-03-01T10:10:58;12.3;88.0
21121;DHT22;12519;43.318;21.898;2023-03-01T10:15:40;12.0;87.0
21121;DHT22;12519;43.318;21.898;2023-03-01T10:20:32;12.0;87.0
21121;DHT22;12519;43.318;21.898;2023-03-01T10:25:43;11.6;87.0
21121;DHT22;12519;43.318;21.898;2023-03-01T10:30:45;11.6;87.0
21121;DHT22;12519;43.318;21.898;2023-03-01T10:35:23;11.6;87.0
21121;DHT22;12519;43.318;21.898;2023-03-01T10:40:07;11.6;87.0
21121;DHT22;12519;43.318;21.898;2023-03-01T10:44:48;11.5;88.0
21121;DHT22;12519;43.318;21.898;2023-03-01T10:49:25;11.5;88.0
21121;DHT22;12519;43.318;21.898;2023-03-01T10:54:01;11.5;88.0
21121;DHT22;12519;43.318;21.898;2023-03-01T10:58:58;11.4;88.0
21121;DHT22;12519;43.318;21.898;2023-03-01T11:03:39;11.4;88.0
21121;DHT22;12519;43.318;21.898;2023-03-01T11:08:30;11.4;88.0
21121;DHT22;12519;43.318;21.898;2023-03-01T11:13:21;11.4;88.0
21121;DHT22;12519;43.318;21.898;2023-03-01T11:17:58;12.3;88.0
21121;DHT22;12519;43.318;21.898;2023-03-01T11:22:35;12.3;88.0
21121;DHT22;12519;43.318;21.898;2023-03-01T11:27:19;13.2;89.0
21121;DHT22;12519;43.318;21.898;2023-03-01T11:32:16;13.2;89.0
21121;DHT22;12519;43.318;21.898;2023-03-01T11:37:29;14.2;85.0
21121;DHT22;12519;43.318;21.898;2023-03-01T11:42:59;14.2;85.0
21121;DHT22;12519;43.318;21.898;2023-03-01T11:48:30;15.1;80.0
21121;DHT22;12519;43.318;21.898;2023-03-01T11:54:16;15.1;80.0
21121;DHT22;12519;43.318;21.898;2023-03-01T11:59:45;13.7;82.0
21121;DHT22;12519;43.318;21.898;2023-03-01T12:05:25;12.3;84.0
21121;DHT22;12519;43.318;21.898;2023-03-01T12:11:43;12.3;84.0
21121;DHT22;12519;43.318;21.898;2023-03-01T12:17:02;11.9;85.0
21121;DHT22;12519;43.318;21.898;2023-03-01T12:22:20;11.9;85.0
21121;DHT22;12519;43.318;21.898;2023-03-01T12:27:38;11.5;87.0
21121;DHT22;12519;43.318;21.898;2023-03-01T12:33:43;11.5;87.0
21121;DHT22;12519;43.318;21.898;2023-03-01T12:39:01;11.3;87.0
21121;DHT22;12519;43.318;21.898;2023-03-01T12:44:49;11.3;87.0
21121;DHT22;12519;43.318;21.898;2023-03-01T12:50:37;11.1;88.0
21121;DHT22;12519;43.318;21.898;2023-03-01T12:55:31;11.0;88.0
21121;DHT22;12519;43.318;21.898;2023-03-01T13:00:26;11.0;88.0
21121;DHT22;12519;43.318;21.898;2023-03-01T13:05:34;11.0;88.0
21121;DHT22;12519;43.318;21.898;2023-03-01T13:10:56;11.0;88.0
21121;DHT22;12519;43.318;21.898;2023-03-01T13:16:21;11.0;89.0
21121;DHT22;12519;43.318;21.898;2023-03-01T13:21:30;11.0;89.0
21121;DHT22;12519;43.318;21.898;2023-03-01T13:26:11;10.9;89.0
21121;DHT22;12519;43.318;21.898;2023-03-01T13:30:53;10.9;89.0
21121;DHT22;12519;43.318;21.898;2023-03-01T13:35:45;10.9;89.0
21121;DHT22;12519;43.318;21.898;2023-03-01T13:42:38;10.9;89.0
21121;DHT22;12519;43.318;21.898;2023-03-01T13:47:23;10.9;89.0
21121;DHT22;12519;43.318;21.898;2023-03-01T13:52:05;10.9;89.0
21121;DHT22;12519;43.318;21.898;2023-03-01T13:57:26;10.8;89.0
21121;DHT22;12519;43.318;21.898;2023-03-01T14:02:14;10.8;89.0
21121;DHT22;12519;43.318;21.898;2023-03-01T14:07:08;10.7;90.0
21121;DHT22;12519;43.318;21.898;2023-03-01T14:12:06;10.7;90.0
21121;DHT22;12519;43.318;21.898;2023-03-01T14:17:40;10.6;90.0
21121;DHT22;12519;43.318;21.898;2023-03-01T14:22:41;10.6;90.0
21121;DHT22;12519;43.318;21.898;2023-03-01T14:27:26;10.5;90.0
21121;DHT22;12519;43.318;21.898;2023-03-01T14:32:19;10.5;90.0
21121;DHT22;12519;43.318;21.898;2023-03-01T14:37:11;10.7;90.0
21121;DHT22;12519;43.318;21.898;2023-03-01T14:42:05;10.7;90.0
21121;DHT22;12519;43.318;21.898;2023-03-01T14:46:44;10.9;91.0
21121;DHT22;12519;43.318;21.898;2023-03-01T14:51:26;10.9;91.0
21121;DHT22;12519;43.318;21.898;2023-03-01T14:56:04;11.0;90.0
21121;DHT22;12519;43.318;21.898;2023-03-01T15:00:52;11.0;90.0
21121;DHT22;12519;43.318;21.898;2023-03-01T15:05:35;11.1;89.0
21121;DHT22;12519;43.318;21.898;2023-03-01T15:10:20;11.1;89.0
21121;DHT22;12519;43.318;21.898;2023-03-01T15:15:21;11.1;89.0
21121;DHT22;12519;43.318;21.898;2023-03-01T15:20:19;11.0;90.0
21121;DHT22;12519;43.318;21.898;2023-03-01T15:25:01;11.0;90.0
21121;DHT22;12519;43.318;21.898;2023-03-01T15:29:38;10.8;90.0
21121;DHT22;12519;43.318;21.898;2023-03-01T15:34:23;10.8;90.0
21121;DHT22;12519;43.318;21.898;2023-03-01T15:39:31;10.7;90.0
21121;DHT22;12519;43.318;21.898;2023-03-01T15:44:26;10.7;90.0
21121;DHT22;12519;43.318;21.898;2023-03-01T15:49:25;10.6;90.0
21121;DHT22;12519;43.318;21.898;2023-03-01T15:54:21;10.6;90.0
21121;DHT22;12519;43.318;21.898;2023-03-01T15:59:04;10.5;91.0
21121;DHT22;12519;43.318;21.898;2023-03-01T16:03:40;10.5;91.0
21121;DHT22;12519;43.318;21.898;2023-03-01T16:08:18;10.4;91.0
21121;DHT22;12519;43.318;21.898;2023-03-01T16:12:54;10.4;91.0
21121;DHT22;12519;43.318;21.898;2023-03-01T16:17:31;10.3;91.0
21121;DHT22;12519;43.318;21.898;2023-03-01T16:22:08;10.3;91.0
21121;DHT22;12519;43.318;21.898;2023-03-01T16:26:46;10.2;91.0
21121;DHT22;12519;43.318;21.898;2023-03-01T16:31:23;10.2;91.0
21121;DHT22;12519;43.318;21.898;2023-03-01T16:36:06;10.1;92.0
21121;DHT22;12519;43.318;21.898;2023-03-01T16:40:49;10.1;92.0
21121;DHT22;12519;43.318;21.898;2023-03-01T16:45:33;10.0;92.0
21121;DHT22;12519;43.318;21.898;2023-03-01T16:50:12;10.0;92.0
21121;DHT22;12519;43.318;21.898;2023-03-01T16:54:49;10.0;92.0
21121;DHT22;12519;43.318;21.898;2023-03-01T16:59:26;10.0;92.0
21121;DHT22;12519;43.318;21.898;2023-03-01T17:04:03;10.0;92.0
21121;DHT22;12519;43.318;21.898;2023-03-01T17:08:41;9.9;92.0
21121;DHT22;12519;43.318;21.898;2023-03-01T17:13:19;9.9;92.0
21121;DHT22;12519;43.318;21.898;2023-03-01T17:17:55;9.9;92.0
21121;DHT22;12519;43.318;21.898;2023-03-01T17:22:32;9.9;92.0
21121;DHT22;12519;43.318;21.898;2023-03-01T17:27:09;9.8;92.0
21121;DHT22;12519;43.318;21.898;2023-03-01T17:31:49;9.8;92.0
21121;DHT22;12519;43.318;21.898;2023-03-01T17:36:25;9.8;93.0
21121;DHT22;12519;43.318;21.898;2023-03-01T17:41:03;9.8;93.0
21121;DHT22;12519;43.318;21.898;2023-03-01T17:45:40;9.8;93.0
21121;DHT22;12519;43.318;21.898;2023-03-01T17:50:19;9.8;93.0
21121;DHT22;12519;43.318;21.898;2023-03-01T17:54:56;9.8;93.0
21121;DHT22;12519;43.318;21.898;2023-03-01T17:59:35;9.8;93.0
21121;DHT22;12519;43.318;21.898;2023-03-01T18:04:12;9.8;93.0
21121;DHT22;12519;43.318;21.898;2023-03-01T18:08:50;9.7;93.0
21121;DHT22;12519;43.318;21.898;2023-03-01T18:13:28;9.7;93.0
21121;DHT22;12519;43.318;21.898;2023-03-01T18:18:05;9.7;94.0
21121;DHT22;12519;43.318;21.898;2023-03-01T18:22:41;9.7;94.0
21121;DHT22;12519;43.318;21.898;2023-03-01T18:27:18;9.7;94.0
21121;DHT22;12519;43.318;21.898;2023-03-01T18:31:55;9.7;94.0
21121;DHT22;12519;43.318;21.898;2023-03-01T18:36:34;9.6;94.0
21121;DHT22;12519;43.318;21.898;2023-03-01T18:41:10;9.6;94.0
21121;DHT22;12519;43.318;21.898;2023-03-01T18:45:47;9.6;94.0
21121;DHT22;12519;43.318;21.898;2023-03-01T18:50:31;9.6;94.0
21121;DHT22;12519;43.318;21.898;2023-03-01T18:55:08;9.6;94.0
21121;DHT22;12519;43.318;21.898;2023-03-01T18:59:45;9.6;94.0
21121;DHT22;12519;43.318;21.898;2023-03-01T19:04:22;9.6;94.0
21121;DHT22;12519;43.318;21.898;2023-03-01T19:08:58;9.5;94.0
21121;DHT22;12519;43.318;21.898;2023-03-01T19:13:37;9.5;94.0
21121;DHT22;12519;43.318;21.898;2023-03-01T19:18:16;9.5;94.0
21121;DHT22;12519;43.318;21.898;2023-03-01T19:22:53;9.5;94.0
21121;DHT22;12519;43.318;21.898;2023-03-01T19:27:30;9.5;94.0
21121;DHT22;12519;43.318;21.898;2023-03-01T19:32:07;9.5;94.0
21121;DHT22;12519;43.318;21.898;2023-03-01T19:36:44;9.6;94.0
21121;DHT22;12519;43.318;21.898;2023-03-01T19:41:21;9.6;94.0
21121;DHT22;12519;43.318;21.898;2023-03-01T19:45:58;9.6;94.0
21121;DHT22;12519;43.318;21.898;2023-03-01T19:50:36;9.6;94.0
21121;DHT22;12519;43.318;21.898;2023-03-01T19:55:13;9.6;94.0
21121;DHT22;12519;43.318;21.898;2023-03-01T19:59:50;9.6;94.0
21121;DHT22;12519;43.318;21.898;2023-03-01T20:04:26;9.6;94.0
21121;DHT22;12519;43.318;21.898;2023-03-01T20:09:04;9.6;94.0
21121;DHT22;12519;43.318;21.898;2023-03-01T20:13:44;9.6;94.0
21121;DHT22;12519;43.318;21.898;2023-03-01T20:18:21;9.6;94.0
21121;DHT22;12519;43.318;21.898;2023-03-01T20:22:58;9.6;94.0
21121;DHT22;12519;43.318;21.898;2023-03-01T20:27:34;9.7;94.0
21121;DHT22;12519;43.318;21.898;2023-03-01T20:32:11;9.7;94.0
21121;DHT22;12519;43.318;21.898;2023-03-01T20:36:48;9.8;94.0
21121;DHT22;12519;43.318;21.898;2023-03-01T20:41:24;9.8;94.0
21121;DHT22;12519;43.318;21.898;2023-03-01T20:46:02;9.8;94.0
21121;DHT22;12519;43.318;21.898;2023-03-01T20:50:43;9.8;94.0
21121;DHT22;12519;43.318;21.898;2023-03-01T20:55:21;9.8;94.0
21121;DHT22;12519;43.318;21.898;2023-03-01T20:59:57;9.8;94.0
21121;DHT22;12519;43.318;21.898;2023-03-01T21:04:34;9.8;94.0
21121;DHT22;12519;43.318;21.898;2023-03-01T21:09:11;9.8;94.0
21121;DHT22;12519;43.318;21.898;2023-03-01T21:13:48;9.8;94.0
21121;DHT22;12519;43.318;21.898;2023-03-01T21:18:25;10.0;94.0
21121;DHT22;12519;43.318;21.898;2023-03-01T21:23:06;10.0;94.0
21121;DHT22;12519;43.318;21.898;2023-03-01T21:27:43;10.2;95.0
21121;DHT22;12519;43.318;21.898;2023-03-01T21:32:19;10.2;95.0
21121;DHT22;12519;43.318;21.898;2023-03-01T21:36:55;10.1;94.0
21121;DHT22;12519;43.318;21.898;2023-03-01T21:41:34;10.1;94.0
21121;DHT22;12519;43.318;21.898;2023-03-01T21:46:14;10.1;93.0
21121;DHT22;12519;43.318;21.898;2023-03-01T21:51:00;10.1;93.0
21121;DHT22;12519;43.318;21.898;2023-03-01T21:55:46;10.1;93.0
21121;DHT22;12519;43.318;21.898;2023-03-01T22:00:24;10.0;94.0
21121;DHT22;12519;43.318;21.898;2023-03-01T22:05:01;10.0;94.0
21121;DHT22;12519;43.318;21.898;2023-03-01T22:09:40;9.8;94.0
21121;DHT22;12519;43.318;21.898;2023-03-01T22:14:17;9.8;94.0
21121;DHT22;12519;43.318;21.898;2023-03-01T22:18:57;10.0;95.0
21121;DHT22;12519;43.318;21.898;2023-03-01T22:23:38;10.0;95.0
21121;DHT22;12519;43.318;21.898;2023-03-01T22:28:17;10.1;95.0
21121;DHT22;12519;43.318;21.898;2023-03-01T22:32:54;10.1;95.0
21121;DHT22;12519;43.318;21.898;2023-03-01T22:37:30;10.0;94.0
21121;DHT22;12519;43.318;21.898;2023-03-01T22:42:07;10.0;94.0
21121;DHT22;12519;43.318;21.898;2023-03-01T22:46:44;10.0;94.0
21121;DHT22;12519;43.318;21.898;2023-03-01T22:51:24;10.0;94.0
21121;DHT22;12519;43.318;21.898;2023-03-01T22:56:13;10.0;94.0
21121;DHT22;12519;43.318;21.898;2023-03-01T23:00:57;10.0;93.0
21121;DHT22;12519;43.318;21.898;2023-03-01T23:05:33;10.0;93.0
21121;DHT22;12519;43.318;21.898;2023-03-01T23:10:10;10.1;93.0
21121;DHT22;12519;43.318;21.898;2023-03-01T23:14:48;10.1;93.0
21121;DHT22;12519;43.318;21.898;2023-03-01T23:19:25;10.0;93.0
21121;DHT22;12519;43.318;21.898;2023-03-01T23:24:05;10.0;93.0
21121;DHT22;12519;43.318;21.898;2023-03-01T23:28:43;10.0;93.0
21121;DHT22;12519;43.318;21.898;2023-03-01T23:33:20;10.0;93.0
21121;DHT22;12519;43.318;21.898;2023-03-01T23:37:58;10.0;93.0
21121;DHT22;12519;43.318;21.898;2023-03-01T23:42:34;10.0;93.0
21121;DHT22;12519;43.318;21.898;2023-03-01T23:47:11;9.9;93.0
21121;DHT22;12519;43.318;21.898;2023-03-01T23:51:48;9.9;93.0
21121;DHT22;12519;43.318;21.898;2023-03-01T23:56:28;9.8;93.0
